sensor_id;sensor_type;location;lat;lon;timestamp;P1;durP1;ratioP1;P2;durP2;ratioP2
11439;SDS011;5776;51.814;4.510;2023-09-08T00:01:41;21.45;;;13.20;;
11439;SDS011;5776;51.814;4.510;2023-09-08T00:04:08;17.92;;;12.65;;
11439;SDS011;5776;51.814;4.510;2023-09-08T00:06:34;18.20;;;12.65;;
11439;SDS011;5776;51.814;4.510;2023-09-08T00:09:02;17.50;;;12.77;;
11439;SDS011;5776;51.814;4.510;2023-09-08T00:11:28;20.80;;;12.85;;
11439;SDS011;5776;51.814;4.510;2023-09-08T00:13:54;17.48;;;13.45;;
11439;SDS011;5776;51.814;4.510;2023-09-08T00:16:20;17.10;;;12.43;;
11439;SDS011;5776;51.814;4.510;2023-09-08T00:18:48;16.48;;;12.80;;
11439;SDS011;5776;51.814;4.510;2023-09-08T00:21:15;18.77;;;13.57;;
11439;SDS011;5776;51.814;4.510;2023-09-08T00:23:41;19.10;;;12.43;;
11439;SDS011;5776;51.814;4.510;2023-09-08T00:26:07;18.15;;;12.98;;
11439;SDS011;5776;51.814;4.510;2023-09-08T00:28:33;17.77;;;13.05;;
11439;SDS011;5776;51.814;4.510;2023-09-08T00:30:59;16.33;;;13.00;;
11439;SDS011;5776;51.814;4.510;2023-09-08T00:33:26;18.83;;;12.00;;
11439;SDS011;5776;51.814;4.510;2023-09-08T00:35:52;16.15;;;11.88;;
11439;SDS011;5776;51.814;4.510;2023-09-08T00:38:19;15.55;;;12.00;;
11439;SDS011;5776;51.814;4.510;2023-09-08T00:40:45;15.15;;;11.38;;
11439;SDS011;5776;51.814;4.510;2023-09-08T00:43:12;16.55;;;12.55;;
11439;SDS011;5776;51.814;4.510;2023-09-08T00:45:40;16.17;;;11.35;;
11439;SDS011;5776;51.814;4.510;2023-09-08T00:48:08;16.70;;;12.70;;
11439;SDS011;5776;51.814;4.510;2023-09-08T00:50:36;19.52;;;13.35;;
11439;SDS011;5776;51.814;4.510;2023-09-08T00:53:02;19.42;;;12.02;;
11439;SDS011;5776;51.814;4.510;2023-09-08T00:55:29;16.17;;;11.88;;
11439;SDS011;5776;51.814;4.510;2023-09-08T00:57:57;18.30;;;12.05;;
11439;SDS011;5776;51.814;4.510;2023-09-08T01:00:24;17.38;;;11.57;;
11439;SDS011;5776;51.814;4.510;2023-09-08T01:02:51;16.08;;;11.55;;
11439;SDS011;5776;51.814;4.510;2023-09-08T01:05:17;16.08;;;11.82;;
11439;SDS011;5776;51.814;4.510;2023-09-08T01:07:43;15.38;;;11.25;;
11439;SDS011;5776;51.814;4.510;2023-09-08T01:10:11;17.48;;;11.38;;
11439;SDS011;5776;51.814;4.510;2023-09-08T01:12:40;15.52;;;11.57;;
11439;SDS011;5776;51.814;4.510;2023-09-08T01:15:06;20.55;;;11.77;;
11439;SDS011;5776;51.814;4.510;2023-09-08T01:17:33;17.13;;;12.13;;
11439;SDS011;5776;51.814;4.510;2023-09-08T01:20:18;18.27;;;12.20;;
11439;SDS011;5776;51.814;4.510;2023-09-08T01:22:55;15.88;;;9.77;;
11439;SDS011;5776;51.814;4.510;2023-09-08T01:25:49;16.25;;;11.68;;
11439;SDS011;5776;51.814;4.510;2023-09-08T01:28:18;15.45;;;11.75;;
11439;SDS011;5776;51.814;4.510;2023-09-08T01:30:46;17.88;;;12.00;;
11439;SDS011;5776;51.814;4.510;2023-09-08T01:33:13;15.55;;;11.38;;
11439;SDS011;5776;51.814;4.510;2023-09-08T01:35:39;16.35;;;11.93;;
11439;SDS011;5776;51.814;4.510;2023-09-08T01:38:05;16.20;;;11.38;;
11439;SDS011;5776;51.814;4.510;2023-09-08T01:40:31;20.27;;;12.40;;
11439;SDS011;5776;51.814;4.510;2023-09-08T01:42:57;21.23;;;12.13;;
11439;SDS011;5776;51.814;4.510;2023-09-08T01:45:23;14.82;;;11.45;;
11439;SDS011;5776;51.814;4.510;2023-09-08T01:47:50;14.98;;;10.95;;
11439;SDS011;5776;51.814;4.510;2023-09-08T01:50:19;17.27;;;10.98;;
11439;SDS011;5776;51.814;4.510;2023-09-08T01:52:48;13.73;;;10.40;;
11439;SDS011;5776;51.814;4.510;2023-09-08T01:55:14;15.70;;;11.05;;
11439;SDS011;5776;51.814;4.510;2023-09-08T01:57:42;15.02;;;10.73;;
11439;SDS011;5776;51.814;4.510;2023-09-08T02:00:11;15.93;;;10.80;;
11439;SDS011;5776;51.814;4.510;2023-09-08T02:02:38;15.60;;;10.63;;
11439;SDS011;5776;51.814;4.510;2023-09-08T02:05:04;15.82;;;10.38;;
11439;SDS011;5776;51.814;4.510;2023-09-08T02:07:30;15.27;;;10.65;;
11439;SDS011;5776;51.814;4.510;2023-09-08T02:09:57;17.48;;;12.13;;
11439;SDS011;5776;51.814;4.510;2023-09-08T02:12:22;16.80;;;12.02;;
11439;SDS011;5776;51.814;4.510;2023-09-08T02:14:49;17.42;;;12.00;;
11439;SDS011;5776;51.814;4.510;2023-09-08T02:17:15;16.33;;;11.07;;
11439;SDS011;5776;51.814;4.510;2023-09-08T02:19:41;16.40;;;10.35;;
11439;SDS011;5776;51.814;4.510;2023-09-08T02:22:07;16.30;;;10.27;;
11439;SDS011;5776;51.814;4.510;2023-09-08T02:24:33;13.93;;;9.93;;
11439;SDS011;5776;51.814;4.510;2023-09-08T02:26:58;12.60;;;9.80;;
11439;SDS011;5776;51.814;4.510;2023-09-08T02:29:24;13.68;;;9.65;;
11439;SDS011;5776;51.814;4.510;2023-09-08T02:31:50;13.63;;;10.32;;
11439;SDS011;5776;51.814;4.510;2023-09-08T02:34:16;12.88;;;9.85;;
11439;SDS011;5776;51.814;4.510;2023-09-08T02:36:43;13.88;;;9.70;;
11439;SDS011;5776;51.814;4.510;2023-09-08T02:39:09;14.07;;;10.02;;
11439;SDS011;5776;51.814;4.510;2023-09-08T02:41:36;14.98;;;10.20;;
11439;SDS011;5776;51.814;4.510;2023-09-08T02:44:03;26.08;;;10.73;;
11439;SDS011;5776;51.814;4.510;2023-09-08T02:46:29;15.15;;;10.45;;
11439;SDS011;5776;51.814;4.510;2023-09-08T02:48:56;15.02;;;10.20;;
11439;SDS011;5776;51.814;4.510;2023-09-08T02:51:22;16.25;;;10.38;;
11439;SDS011;5776;51.814;4.510;2023-09-08T02:53:49;13.15;;;10.13;;
11439;SDS011;5776;51.814;4.510;2023-09-08T02:56:14;15.32;;;10.93;;
11439;SDS011;5776;51.814;4.510;2023-09-08T02:58:41;15.57;;;10.43;;
11439;SDS011;5776;51.814;4.510;2023-09-08T03:01:13;13.32;;;9.98;;
11439;SDS011;5776;51.814;4.510;2023-09-08T03:03:41;12.85;;;10.32;;
11439;SDS011;5776;51.814;4.510;2023-09-08T03:06:08;14.00;;;10.32;;
11439;SDS011;5776;51.814;4.510;2023-09-08T03:08:34;13.43;;;10.07;;
11439;SDS011;5776;51.814;4.510;2023-09-08T03:11:02;13.95;;;9.85;;
11439;SDS011;5776;51.814;4.510;2023-09-08T03:13:29;13.63;;;9.75;;
11439;SDS011;5776;51.814;4.510;2023-09-08T03:15:56;15.52;;;10.30;;
11439;SDS011;5776;51.814;4.510;2023-09-08T03:18:24;13.95;;;9.85;;
11439;SDS011;5776;51.814;4.510;2023-09-08T03:20:50;13.15;;;10.07;;
11439;SDS011;5776;51.814;4.510;2023-09-08T03:23:15;12.60;;;9.13;;
11439;SDS011;5776;51.814;4.510;2023-09-08T03:25:42;11.40;;;9.57;;
11439;SDS011;5776;51.814;4.510;2023-09-08T03:28:09;15.73;;;10.27;;
11439;SDS011;5776;51.814;4.510;2023-09-08T03:30:35;12.27;;;9.27;;
11439;SDS011;5776;51.814;4.510;2023-09-08T03:33:01;14.05;;;9.77;;
11439;SDS011;5776;51.814;4.510;2023-09-08T03:35:27;12.02;;;9.55;;
11439;SDS011;5776;51.814;4.510;2023-09-08T03:37:54;11.15;;;8.68;;
11439;SDS011;5776;51.814;4.510;2023-09-08T03:40:20;13.60;;;9.32;;
11439;SDS011;5776;51.814;4.510;2023-09-08T03:42:45;10.45;;;8.55;;
11439;SDS011;5776;51.814;4.510;2023-09-08T03:45:11;11.85;;;8.73;;
11439;SDS011;5776;51.814;4.510;2023-09-08T03:47:37;13.57;;;9.73;;
11439;SDS011;5776;51.814;4.510;2023-09-08T03:50:03;12.27;;;9.55;;
11439;SDS011;5776;51.814;4.510;2023-09-08T03:52:29;10.75;;;8.77;;
11439;SDS011;5776;51.814;4.510;2023-09-08T03:54:56;12.90;;;8.93;;
11439;SDS011;5776;51.814;4.510;2023-09-08T03:57:21;11.32;;;9.57;;
11439;SDS011;5776;51.814;4.510;2023-09-08T03:59:47;15.63;;;10.20;;
11439;SDS011;5776;51.814;4.510;2023-09-08T04:02:13;16.17;;;9.57;;
11439;SDS011;5776;51.814;4.510;2023-09-08T04:04:39;13.02;;;9.25;;
11439;SDS011;5776;51.814;4.510;2023-09-08T04:07:05;12.00;;;8.60;;
11439;SDS011;5776;51.814;4.510;2023-09-08T04:09:31;11.68;;;9.23;;
11439;SDS011;5776;51.814;4.510;2023-09-08T04:11:57;12.35;;;9.50;;
11439;SDS011;5776;51.814;4.510;2023-09-08T04:14:25;14.38;;;9.30;;
11439;SDS011;5776;51.814;4.510;2023-09-08T04:16:53;17.77;;;9.93;;
11439;SDS011;5776;51.814;4.510;2023-09-08T04:19:19;11.57;;;8.75;;
11439;SDS011;5776;51.814;4.510;2023-09-08T04:21:44;11.95;;;8.55;;
11439;SDS011;5776;51.814;4.510;2023-09-08T04:24:10;11.77;;;8.77;;
11439;SDS011;5776;51.814;4.510;2023-09-08T04:26:36;13.32;;;8.95;;
11439;SDS011;5776;51.814;4.510;2023-09-08T04:29:02;11.38;;;8.27;;
11439;SDS011;5776;51.814;4.510;2023-09-08T04:31:28;13.80;;;8.85;;
11439;SDS011;5776;51.814;4.510;2023-09-08T04:33:54;11.82;;;8.73;;
11439;SDS011;5776;51.814;4.510;2023-09-08T04:36:21;15.25;;;9.20;;
11439;SDS011;5776;51.814;4.510;2023-09-08T04:38:47;13.20;;;9.38;;
11439;SDS011;5776;51.814;4.510;2023-09-08T04:41:13;12.80;;;9.63;;
11439;SDS011;5776;51.814;4.510;2023-09-08T04:43:39;14.45;;;9.30;;
11439;SDS011;5776;51.814;4.510;2023-09-08T04:46:05;12.18;;;8.57;;
11439;SDS011;5776;51.814;4.510;2023-09-08T04:48:31;13.32;;;8.90;;
11439;SDS011;5776;51.814;4.510;2023-09-08T04:50:58;13.43;;;9.38;;
11439;SDS011;5776;51.814;4.510;2023-09-08T04:53:24;13.90;;;9.10;;
11439;SDS011;5776;51.814;4.510;2023-09-08T04:55:52;13.65;;;9.38;;
11439;SDS011;5776;51.814;4.510;2023-09-08T04:58:19;12.18;;;8.88;;
11439;SDS011;5776;51.814;4.510;2023-09-08T05:00:45;13.65;;;9.18;;
11439;SDS011;5776;51.814;4.510;2023-09-08T05:03:13;12.23;;;9.02;;
11439;SDS011;5776;51.814;4.510;2023-09-08T05:05:39;10.82;;;9.18;;
11439;SDS011;5776;51.814;4.510;2023-09-08T05:08:04;15.52;;;9.35;;
11439;SDS011;5776;51.814;4.510;2023-09-08T05:10:30;12.38;;;8.95;;
11439;SDS011;5776;51.814;4.510;2023-09-08T05:12:56;15.23;;;9.18;;
11439;SDS011;5776;51.814;4.510;2023-09-08T05:15:22;14.45;;;9.25;;
11439;SDS011;5776;51.814;4.510;2023-09-08T05:17:50;12.18;;;8.40;;
11439;SDS011;5776;51.814;4.510;2023-09-08T05:20:16;14.73;;;8.48;;
11439;SDS011;5776;51.814;4.510;2023-09-08T05:22:42;13.68;;;8.95;;
11439;SDS011;5776;51.814;4.510;2023-09-08T05:25:08;11.35;;;8.10;;
11439;SDS011;5776;51.814;4.510;2023-09-08T05:27:34;11.57;;;7.20;;
11439;SDS011;5776;51.814;4.510;2023-09-08T05:30:00;11.90;;;8.73;;
11439;SDS011;5776;51.814;4.510;2023-09-08T05:32:26;15.05;;;8.48;;
11439;SDS011;5776;51.814;4.510;2023-09-08T05:34:51;12.20;;;9.05;;
11439;SDS011;5776;51.814;4.510;2023-09-08T05:37:17;12.85;;;8.32;;
11439;SDS011;5776;51.814;4.510;2023-09-08T05:39:43;8.63;;;7.15;;
11439;SDS011;5776;51.814;4.510;2023-09-08T05:42:10;7.45;;;5.50;;
11439;SDS011;5776;51.814;4.510;2023-09-08T05:44:35;8.50;;;6.30;;
11439;SDS011;5776;51.814;4.510;2023-09-08T05:47:02;8.27;;;5.95;;
11439;SDS011;5776;51.814;4.510;2023-09-08T05:49:28;6.72;;;5.18;;
11439;SDS011;5776;51.814;4.510;2023-09-08T05:51:53;8.10;;;5.90;;
11439;SDS011;5776;51.814;4.510;2023-09-08T05:54:19;9.38;;;7.50;;
11439;SDS011;5776;51.814;4.510;2023-09-08T05:56:46;11.43;;;8.45;;
11439;SDS011;5776;51.814;4.510;2023-09-08T05:59:11;10.68;;;6.95;;
11439;SDS011;5776;51.814;4.510;2023-09-08T06:01:36;9.55;;;6.45;;
11439;SDS011;5776;51.814;4.510;2023-09-08T06:04:02;12.20;;;7.88;;
11439;SDS011;5776;51.814;4.510;2023-09-08T06:06:28;10.10;;;7.85;;
11439;SDS011;5776;51.814;4.510;2023-09-08T06:08:54;13.50;;;8.40;;
11439;SDS011;5776;51.814;4.510;2023-09-08T06:11:19;11.73;;;8.80;;
11439;SDS011;5776;51.814;4.510;2023-09-08T06:13:46;13.05;;;8.77;;
11439;SDS011;5776;51.814;4.510;2023-09-08T06:16:12;14.27;;;8.75;;
11439;SDS011;5776;51.814;4.510;2023-09-08T06:19:00;12.35;;;8.73;;
11439;SDS011;5776;51.814;4.510;2023-09-08T06:21:28;13.20;;;9.70;;
11439;SDS011;5776;51.814;4.510;2023-09-08T06:23:53;16.85;;;9.32;;
11439;SDS011;5776;51.814;4.510;2023-09-08T06:26:19;14.35;;;9.98;;
11439;SDS011;5776;51.814;4.510;2023-09-08T06:28:45;14.07;;;10.40;;
11439;SDS011;5776;51.814;4.510;2023-09-08T06:31:10;13.98;;;9.75;;
11439;SDS011;5776;51.814;4.510;2023-09-08T06:33:36;16.05;;;10.38;;
11439;SDS011;5776;51.814;4.510;2023-09-08T06:36:01;15.90;;;10.13;;
11439;SDS011;5776;51.814;4.510;2023-09-08T06:38:27;17.38;;;10.88;;
11439;SDS011;5776;51.814;4.510;2023-09-08T06:40:56;12.82;;;9.73;;
11439;SDS011;5776;51.814;4.510;2023-09-08T06:43:22;13.45;;;10.10;;
11439;SDS011;5776;51.814;4.510;2023-09-08T06:45:50;11.05;;;7.07;;
11439;SDS011;5776;51.814;4.510;2023-09-08T06:48:16;16.77;;;9.88;;
11439;SDS011;5776;51.814;4.510;2023-09-08T06:51:01;15.25;;;9.98;;
11439;SDS011;5776;51.814;4.510;2023-09-08T06:53:27;17.15;;;10.50;;
11439;SDS011;5776;51.814;4.510;2023-09-08T06:55:53;16.23;;;10.50;;
11439;SDS011;5776;51.814;4.510;2023-09-08T06:58:19;15.23;;;10.65;;
11439;SDS011;5776;51.814;4.510;2023-09-08T07:00:45;15.63;;;11.93;;
11439;SDS011;5776;51.814;4.510;2023-09-08T07:03:11;15.90;;;10.80;;
11439;SDS011;5776;51.814;4.510;2023-09-08T07:05:38;16.73;;;12.02;;
11439;SDS011;5776;51.814;4.510;2023-09-08T07:08:06;17.02;;;11.00;;
11439;SDS011;5776;51.814;4.510;2023-09-08T07:10:32;15.63;;;10.50;;
11439;SDS011;5776;51.814;4.510;2023-09-08T07:12:58;17.08;;;11.00;;
11439;SDS011;5776;51.814;4.510;2023-09-08T07:15:25;16.45;;;10.38;;
11439;SDS011;5776;51.814;4.510;2023-09-08T07:17:51;15.93;;;11.25;;
11439;SDS011;5776;51.814;4.510;2023-09-08T07:20:17;17.75;;;10.55;;
11439;SDS011;5776;51.814;4.510;2023-09-08T07:22:44;15.07;;;10.20;;
11439;SDS011;5776;51.814;4.510;2023-09-08T07:25:10;16.52;;;11.63;;
11439;SDS011;5776;51.814;4.510;2023-09-08T07:27:36;17.77;;;12.15;;
11439;SDS011;5776;51.814;4.510;2023-09-08T07:30:02;15.85;;;12.10;;
11439;SDS011;5776;51.814;4.510;2023-09-08T07:32:29;19.33;;;12.43;;
11439;SDS011;5776;51.814;4.510;2023-09-08T07:34:54;19.90;;;12.75;;
11439;SDS011;5776;51.814;4.510;2023-09-08T07:37:21;22.83;;;13.23;;
11439;SDS011;5776;51.814;4.510;2023-09-08T07:39:48;17.55;;;13.02;;
11439;SDS011;5776;51.814;4.510;2023-09-08T07:42:14;15.50;;;11.23;;
11439;SDS011;5776;51.814;4.510;2023-09-08T07:44:39;16.13;;;12.38;;
11439;SDS011;5776;51.814;4.510;2023-09-08T07:47:06;17.02;;;11.65;;
11439;SDS011;5776;51.814;4.510;2023-09-08T07:49:33;26.35;;;13.48;;
11439;SDS011;5776;51.814;4.510;2023-09-08T07:51:59;19.02;;;13.75;;
11439;SDS011;5776;51.814;4.510;2023-09-08T07:54:26;20.20;;;13.88;;
11439;SDS011;5776;51.814;4.510;2023-09-08T07:56:52;18.73;;;13.35;;
11439;SDS011;5776;51.814;4.510;2023-09-08T07:59:18;19.67;;;13.30;;
11439;SDS011;5776;51.814;4.510;2023-09-08T08:01:43;20.58;;;15.07;;
11439;SDS011;5776;51.814;4.510;2023-09-08T08:04:09;18.98;;;13.73;;
11439;SDS011;5776;51.814;4.510;2023-09-08T08:06:37;17.40;;;12.95;;
11439;SDS011;5776;51.814;4.510;2023-09-08T08:09:06;20.55;;;13.65;;
11439;SDS011;5776;51.814;4.510;2023-09-08T08:11:31;18.10;;;13.60;;
11439;SDS011;5776;51.814;4.510;2023-09-08T08:13:57;20.63;;;13.02;;
11439;SDS011;5776;51.814;4.510;2023-09-08T08:16:23;19.60;;;14.60;;
11439;SDS011;5776;51.814;4.510;2023-09-08T08:18:49;22.30;;;13.73;;
11439;SDS011;5776;51.814;4.510;2023-09-08T08:21:16;20.88;;;13.95;;
11439;SDS011;5776;51.814;4.510;2023-09-08T08:23:41;17.88;;;13.70;;
11439;SDS011;5776;51.814;4.510;2023-09-08T08:26:07;16.15;;;11.77;;
11439;SDS011;5776;51.814;4.510;2023-09-08T08:28:33;17.90;;;13.57;;
11439;SDS011;5776;51.814;4.510;2023-09-08T08:31:00;16.77;;;11.57;;
11439;SDS011;5776;51.814;4.510;2023-09-08T08:33:26;18.42;;;11.60;;
11439;SDS011;5776;51.814;4.510;2023-09-08T08:35:52;13.32;;;9.52;;
11439;SDS011;5776;51.814;4.510;2023-09-08T08:38:18;15.57;;;11.43;;
11439;SDS011;5776;51.814;4.510;2023-09-08T08:40:44;17.10;;;11.23;;
11439;SDS011;5776;51.814;4.510;2023-09-08T08:43:10;16.67;;;11.93;;
11439;SDS011;5776;51.814;4.510;2023-09-08T08:45:37;17.90;;;12.20;;
11439;SDS011;5776;51.814;4.510;2023-09-08T08:48:04;13.25;;;9.50;;
11439;SDS011;5776;51.814;4.510;2023-09-08T08:50:31;20.17;;;11.27;;
11439;SDS011;5776;51.814;4.510;2023-09-08T08:52:58;15.50;;;10.25;;
11439;SDS011;5776;51.814;4.510;2023-09-08T08:55:25;20.50;;;11.77;;
11439;SDS011;5776;51.814;4.510;2023-09-08T08:57:52;14.93;;;11.48;;
11439;SDS011;5776;51.814;4.510;2023-09-08T09:00:18;14.25;;;9.77;;
11439;SDS011;5776;51.814;4.510;2023-09-08T09:02:43;17.08;;;11.82;;
11439;SDS011;5776;51.814;4.510;2023-09-08T09:05:12;18.75;;;12.70;;
11439;SDS011;5776;51.814;4.510;2023-09-08T09:07:42;16.48;;;12.05;;
11439;SDS011;5776;51.814;4.510;2023-09-08T09:10:08;15.73;;;12.35;;
11439;SDS011;5776;51.814;4.510;2023-09-08T09:12:36;25.08;;;14.13;;
11439;SDS011;5776;51.814;4.510;2023-09-08T09:15:04;18.48;;;13.65;;
11439;SDS011;5776;51.814;4.510;2023-09-08T09:17:34;20.98;;;14.25;;
11439;SDS011;5776;51.814;4.510;2023-09-08T09:20:12;19.20;;;13.27;;
11439;SDS011;5776;51.814;4.510;2023-09-08T09:22:43;17.52;;;11.80;;
11439;SDS011;5776;51.814;4.510;2023-09-08T09:25:20;18.58;;;14.05;;
11439;SDS011;5776;51.814;4.510;2023-09-08T09:28:05;15.55;;;11.88;;
11439;SDS011;5776;51.814;4.510;2023-09-08T09:30:48;13.30;;;9.80;;
11439;SDS011;5776;51.814;4.510;2023-09-08T09:33:16;15.10;;;11.05;;
11439;SDS011;5776;51.814;4.510;2023-09-08T09:35:43;18.98;;;12.60;;
11439;SDS011;5776;51.814;4.510;2023-09-08T09:38:10;19.05;;;12.95;;
11439;SDS011;5776;51.814;4.510;2023-09-08T09:40:37;15.93;;;9.48;;
11439;SDS011;5776;51.814;4.510;2023-09-08T09:43:04;14.48;;;11.55;;
11439;SDS011;5776;51.814;4.510;2023-09-08T09:45:35;15.50;;;11.52;;
11439;SDS011;5776;51.814;4.510;2023-09-08T09:48:02;18.42;;;12.45;;
11439;SDS011;5776;51.814;4.510;2023-09-08T09:50:41;15.85;;;11.10;;
11439;SDS011;5776;51.814;4.510;2023-09-08T09:53:14;14.98;;;10.57;;
11439;SDS011;5776;51.814;4.510;2023-09-08T09:55:41;9.27;;;7.55;;
11439;SDS011;5776;51.814;4.510;2023-09-08T09:58:11;10.75;;;6.50;;
11439;SDS011;5776;51.814;4.510;2023-09-08T10:00:38;10.88;;;8.30;;
11439;SDS011;5776;51.814;4.510;2023-09-08T10:03:06;8.40;;;6.20;;
11439;SDS011;5776;51.814;4.510;2023-09-08T10:05:34;13.25;;;10.02;;
11439;SDS011;5776;51.814;4.510;2023-09-08T10:07:59;10.90;;;8.20;;
11439;SDS011;5776;51.814;4.510;2023-09-08T10:10:26;11.10;;;8.18;;
11439;SDS011;5776;51.814;4.510;2023-09-08T10:12:57;11.43;;;7.90;;
11439;SDS011;5776;51.814;4.510;2023-09-08T10:15:30;7.32;;;5.05;;
11439;SDS011;5776;51.814;4.510;2023-09-08T10:17:57;10.07;;;6.57;;
11439;SDS011;5776;51.814;4.510;2023-09-08T10:20:26;18.30;;;9.30;;
11439;SDS011;5776;51.814;4.510;2023-09-08T10:22:55;10.65;;;6.72;;
11439;SDS011;5776;51.814;4.510;2023-09-08T10:25:45;11.55;;;8.27;;
11439;SDS011;5776;51.814;4.510;2023-09-08T10:28:18;11.05;;;6.60;;
11439;SDS011;5776;51.814;4.510;2023-09-08T10:30:45;9.95;;;6.53;;
11439;SDS011;5776;51.814;4.510;2023-09-08T10:33:12;11.85;;;7.30;;
11439;SDS011;5776;51.814;4.510;2023-09-08T10:35:38;12.85;;;8.23;;
11439;SDS011;5776;51.814;4.510;2023-09-08T10:38:27;12.70;;;8.35;;
11439;SDS011;5776;51.814;4.510;2023-09-08T10:43:42;9.55;;;7.43;;
11439;SDS011;5776;51.814;4.510;2023-09-08T10:46:09;8.35;;;5.63;;
11439;SDS011;5776;51.814;4.510;2023-09-08T10:48:42;9.15;;;6.18;;
11439;SDS011;5776;51.814;4.510;2023-09-08T10:51:16;12.52;;;8.43;;
11439;SDS011;5776;51.814;4.510;2023-09-08T10:53:43;11.25;;;7.82;;
11439;SDS011;5776;51.814;4.510;2023-09-08T10:56:14;12.18;;;7.97;;
11439;SDS011;5776;51.814;4.510;2023-09-08T10:58:40;11.80;;;7.57;;
11439;SDS011;5776;51.814;4.510;2023-09-08T11:01:12;13.45;;;9.30;;
11439;SDS011;5776;51.814;4.510;2023-09-08T11:03:45;8.98;;;6.82;;
11439;SDS011;5776;51.814;4.510;2023-09-08T11:06:15;7.45;;;5.45;;
11439;SDS011;5776;51.814;4.510;2023-09-08T11:08:43;8.07;;;6.10;;
11439;SDS011;5776;51.814;4.510;2023-09-08T11:11:11;8.02;;;5.72;;
11439;SDS011;5776;51.814;4.510;2023-09-08T11:13:38;7.60;;;4.57;;
11439;SDS011;5776;51.814;4.510;2023-09-08T11:16:06;3.97;;;3.58;;
11439;SDS011;5776;51.814;4.510;2023-09-08T11:18:32;11.25;;;6.43;;
11439;SDS011;5776;51.814;4.510;2023-09-08T11:21:00;8.40;;;5.13;;
11439;SDS011;5776;51.814;4.510;2023-09-08T11:23:33;8.65;;;5.82;;
11439;SDS011;5776;51.814;4.510;2023-09-08T11:26:00;10.27;;;5.32;;
11439;SDS011;5776;51.814;4.510;2023-09-08T11:28:27;6.68;;;4.30;;
11439;SDS011;5776;51.814;4.510;2023-09-08T11:30:54;7.07;;;4.68;;
11439;SDS011;5776;51.814;4.510;2023-09-08T11:33:23;7.45;;;4.55;;
11439;SDS011;5776;51.814;4.510;2023-09-08T11:35:52;8.02;;;5.60;;
11439;SDS011;5776;51.814;4.510;2023-09-08T11:38:28;7.70;;;4.85;;
11439;SDS011;5776;51.814;4.510;2023-09-08T11:40:56;7.40;;;4.93;;
11439;SDS011;5776;51.814;4.510;2023-09-08T11:43:23;10.75;;;7.63;;
11439;SDS011;5776;51.814;4.510;2023-09-08T11:45:49;6.45;;;4.55;;
11439;SDS011;5776;51.814;4.510;2023-09-08T11:48:15;9.07;;;6.88;;
11439;SDS011;5776;51.814;4.510;2023-09-08T11:50:42;11.52;;;6.45;;
11439;SDS011;5776;51.814;4.510;2023-09-08T11:53:08;6.32;;;5.00;;
11439;SDS011;5776;51.814;4.510;2023-09-08T11:55:36;10.98;;;6.72;;
11439;SDS011;5776;51.814;4.510;2023-09-08T11:58:05;6.57;;;5.20;;
11439;SDS011;5776;51.814;4.510;2023-09-08T12:00:31;5.72;;;3.90;;
11439;SDS011;5776;51.814;4.510;2023-09-08T12:03:14;6.15;;;3.60;;
11439;SDS011;5776;51.814;4.510;2023-09-08T12:05:41;5.93;;;4.38;;
11439;SDS011;5776;51.814;4.510;2023-09-08T12:08:09;8.50;;;5.05;;
11439;SDS011;5776;51.814;4.510;2023-09-08T12:10:42;5.20;;;3.80;;
11439;SDS011;5776;51.814;4.510;2023-09-08T12:13:08;6.68;;;4.15;;
11439;SDS011;5776;51.814;4.510;2023-09-08T12:15:38;6.32;;;3.90;;
11439;SDS011;5776;51.814;4.510;2023-09-08T12:18:06;4.18;;;3.10;;
11439;SDS011;5776;51.814;4.510;2023-09-08T12:20:33;7.10;;;3.65;;
11439;SDS011;5776;51.814;4.510;2023-09-08T12:23:02;5.68;;;3.97;;
11439;SDS011;5776;51.814;4.510;2023-09-08T12:25:29;8.25;;;4.70;;
11439;SDS011;5776;51.814;4.510;2023-09-08T12:27:58;6.15;;;3.90;;
11439;SDS011;5776;51.814;4.510;2023-09-08T12:30:24;4.95;;;4.15;;
11439;SDS011;5776;51.814;4.510;2023-09-08T12:32:58;6.38;;;4.05;;
11439;SDS011;5776;51.814;4.510;2023-09-08T12:35:24;4.65;;;3.28;;
11439;SDS011;5776;51.814;4.510;2023-09-08T12:37:56;5.82;;;4.40;;
11439;SDS011;5776;51.814;4.510;2023-09-08T12:40:26;5.03;;;3.60;;
11439;SDS011;5776;51.814;4.510;2023-09-08T12:42:53;5.82;;;4.00;;
11439;SDS011;5776;51.814;4.510;2023-09-08T12:45:22;7.55;;;3.92;;
11439;SDS011;5776;51.814;4.510;2023-09-08T12:47:51;5.72;;;4.38;;
11439;SDS011;5776;51.814;4.510;2023-09-08T12:50:17;6.10;;;4.40;;
11439;SDS011;5776;51.814;4.510;2023-09-08T12:52:43;4.43;;;3.70;;
11439;SDS011;5776;51.814;4.510;2023-09-08T12:55:09;5.85;;;3.63;;
11439;SDS011;5776;51.814;4.510;2023-09-08T12:57:35;5.68;;;3.70;;
11439;SDS011;5776;51.814;4.510;2023-09-08T13:00:05;4.10;;;2.97;;
11439;SDS011;5776;51.814;4.510;2023-09-08T13:02:31;3.95;;;2.95;;
11439;SDS011;5776;51.814;4.510;2023-09-08T13:04:57;4.65;;;3.40;;
11439;SDS011;5776;51.814;4.510;2023-09-08T13:07:24;4.47;;;3.05;;
11439;SDS011;5776;51.814;4.510;2023-09-08T13:09:51;4.32;;;3.13;;
11439;SDS011;5776;51.814;4.510;2023-09-08T13:12:17;6.00;;;3.08;;
11439;SDS011;5776;51.814;4.510;2023-09-08T13:14:43;4.25;;;3.08;;
11439;SDS011;5776;51.814;4.510;2023-09-08T13:17:12;4.32;;;2.83;;
11439;SDS011;5776;51.814;4.510;2023-09-08T13:19:39;5.30;;;2.95;;
11439;SDS011;5776;51.814;4.510;2023-09-08T13:22:05;5.82;;;3.30;;
11439;SDS011;5776;51.814;4.510;2023-09-08T13:24:32;3.08;;;2.67;;
11439;SDS011;5776;51.814;4.510;2023-09-08T13:26:59;7.43;;;3.00;;
11439;SDS011;5776;51.814;4.510;2023-09-08T13:29:26;5.78;;;3.15;;
11439;SDS011;5776;51.814;4.510;2023-09-08T13:31:56;6.50;;;3.30;;
11439;SDS011;5776;51.814;4.510;2023-09-08T13:34:23;4.75;;;3.10;;
11439;SDS011;5776;51.814;4.510;2023-09-08T13:36:49;3.72;;;3.20;;
11439;SDS011;5776;51.814;4.510;2023-09-08T13:39:15;6.10;;;3.70;;
11439;SDS011;5776;51.814;4.510;2023-09-08T13:41:45;5.28;;;3.33;;
11439;SDS011;5776;51.814;4.510;2023-09-08T13:44:18;6.00;;;3.72;;
11439;SDS011;5776;51.814;4.510;2023-09-08T13:46:46;6.93;;;3.67;;
11439;SDS011;5776;51.814;4.510;2023-09-08T13:49:13;5.78;;;4.10;;
11439;SDS011;5776;51.814;4.510;2023-09-08T13:51:40;6.43;;;3.45;;
11439;SDS011;5776;51.814;4.510;2023-09-08T13:54:06;5.45;;;3.50;;
11439;SDS011;5776;51.814;4.510;2023-09-08T13:56:32;4.22;;;3.17;;
11439;SDS011;5776;51.814;4.510;2023-09-08T13:58:58;4.13;;;3.17;;
11439;SDS011;5776;51.814;4.510;2023-09-08T14:01:25;4.43;;;3.17;;
11439;SDS011;5776;51.814;4.510;2023-09-08T14:03:55;8.98;;;3.33;;
11439;SDS011;5776;51.814;4.510;2023-09-08T14:06:22;5.45;;;3.47;;
11439;SDS011;5776;51.814;4.510;2023-09-08T14:08:49;4.57;;;3.28;;
11439;SDS011;5776;51.814;4.510;2023-09-08T14:11:15;4.60;;;2.92;;
11439;SDS011;5776;51.814;4.510;2023-09-08T14:13:41;4.80;;;3.45;;
11439;SDS011;5776;51.814;4.510;2023-09-08T14:16:09;5.50;;;3.25;;
11439;SDS011;5776;51.814;4.510;2023-09-08T14:18:36;4.97;;;2.92;;
11439;SDS011;5776;51.814;4.510;2023-09-08T14:21:02;3.38;;;2.47;;
11439;SDS011;5776;51.814;4.510;2023-09-08T14:23:28;6.35;;;3.00;;
11439;SDS011;5776;51.814;4.510;2023-09-08T14:25:54;3.00;;;2.60;;
11439;SDS011;5776;51.814;4.510;2023-09-08T14:28:22;9.23;;;3.03;;
11439;SDS011;5776;51.814;4.510;2023-09-08T14:30:49;8.02;;;3.15;;
11439;SDS011;5776;51.814;4.510;2023-09-08T14:33:16;8.13;;;3.13;;
11439;SDS011;5776;51.814;4.510;2023-09-08T14:35:42;3.45;;;2.67;;
11439;SDS011;5776;51.814;4.510;2023-09-08T14:38:17;6.13;;;2.85;;
11439;SDS011;5776;51.814;4.510;2023-09-08T14:40:43;4.03;;;2.30;;
11439;SDS011;5776;51.814;4.510;2023-09-08T14:43:10;4.40;;;2.60;;
11439;SDS011;5776;51.814;4.510;2023-09-08T14:45:37;5.63;;;3.05;;
11439;SDS011;5776;51.814;4.510;2023-09-08T14:48:03;3.65;;;2.63;;
11439;SDS011;5776;51.814;4.510;2023-09-08T14:50:30;7.32;;;2.33;;